Terminal Aerodrome Forecast
Issued by NWS

Home | Current Version | Previous Version | Text Only | Print | Product List | Glossary On
Versions: 1 2 3 4 5 6 7 8 9 10 11 12 13 14 15 16 17 18 19
000
FTAK31 PAJN 310500
TAFAPG
TAF
PAPG 310522Z 3106/0106 00000KT P6SM VCSH BKN030 BKN040
     FM310800 00000KT 6SM BR VCSH SCT005 OVC030
     FM311000 VRB02KT 4SM -RA BR SCT005 BKN012 OVC025
     FM311700 VRB03KT 6SM -RA BR SCT015 OVC025
     FM010100 10004KT P6SM -SHRA SCT015 OVC035
      AMD LTD TO CLD VIS AND WIND 3106/3115=

USA.gov is the U.S. government's official web portal to all federal, state and local government web resources and services.